Time;durP1;ratioP1;P1;durP2;ratioP2;P2;SDS_P1;SDS_P2;PMS_P1;PMS_P2;Temp;Humidity;BMP_temperature;BMP_pressure;BME280_temperature;BME280_humidity;BME280_pressure;Samples;Min_cycle;Max_cycle;Signal;HPM_P1;HPM_P2
2023/08/10 00:01:41;;;;;;;4.57;2.60;;;12.40;99.90;;;;;;4826436;29;20212;-82
2023/08/10 00:04:07;;;;;;;5.87;2.50;;;12.40;99.90;;;;;;4826111;29;20203;-82
2023/08/10 00:06:32;;;;;;;9.70;3.23;;;12.40;99.90;;;;;;4826028;29;20186;-81
2023/08/10 00:08:58;;;;;;;5.80;2.50;;;12.30;99.90;;;;;;4826581;29;20243;-82
2023/08/10 00:11:23;;;;;;;9.13;2.90;;;12.30;99.90;;;;;;4826310;29;20185;-82
2023/08/10 00:13:49;;;;;;;4.70;2.90;;;12.30;99.90;;;;;;4809825;29;20193;-82
2023/08/10 00:16:14;;;;;;;4.73;2.73;;;12.40;99.90;;;;;;4825984;29;20565;-82
2023/08/10 00:18:40;;;;;;;4.90;2.43;;;12.20;99.90;;;;;;4826175;29;20230;-82
2023/08/10 00:21:06;;;;;;;5.40;2.83;;;12.20;99.90;;;;;;4826034;29;20220;-82
2023/08/10 00:23:31;;;;;;;5.43;3.10;;;12.10;99.90;;;;;;4825997;29;20189;-82
2023/08/10 00:25:57;;;;;;;7.40;3.23;;;12.10;99.90;;;;;;4809771;29;20253;-82
2023/08/10 00:28:23;;;;;;;7.33;3.10;;;12.10;99.90;;;;;;4825965;29;20200;-81
2023/08/10 00:30:48;;;;;;;8.67;2.70;;;12.00;99.90;;;;;;4825508;29;20505;-82
2023/08/10 00:33:14;;;;;;;3.47;2.80;;;11.90;99.90;;;;;;4826109;29;20643;-82
2023/08/10 00:35:39;;;;;;;5.80;2.83;;;11.90;99.90;;;;;;4826041;29;20221;-82
2023/08/10 00:38:06;;;;;;;3.57;2.63;;;11.90;99.90;;;;;;4826075;29;20188;-82
2023/08/10 00:40:32;;;;;;;7.40;2.57;;;11.90;99.90;;;;;;4825609;29;20737;-81
2023/08/10 00:43:00;;;;;;;11.17;3.17;;;11.80;99.90;;;;;;4826056;29;20492;-81
2023/08/10 00:45:27;;;;;;;5.90;3.63;;;11.80;99.90;;;;;;4825497;29;20429;-82
2023/08/10 00:47:53;;;;;;;7.93;3.70;;;11.80;99.90;;;;;;4825695;29;20438;-82
2023/08/10 00:50:20;;;;;;;4.40;3.20;;;11.90;99.90;;;;;;4825270;29;20434;-82
2023/08/10 00:52:46;;;;;;;4.33;3.17;;;11.80;99.90;;;;;;4825610;29;20235;-82
2023/08/10 00:55:11;;;;;;;12.17;3.23;;;11.80;99.90;;;;;;4825610;29;20534;-81
2023/08/10 00:57:38;;;;;;;5.03;3.10;;;11.70;99.90;;;;;;4825611;29;20964;-82
2023/08/10 01:00:06;;;;;;;4.57;2.90;;;11.70;99.90;;;;;;4825586;29;20190;-82
2023/08/10 01:02:31;;;;;;;13.10;3.00;;;11.70;99.90;;;;;;4825322;29;20471;-81
2023/08/10 01:04:57;;;;;;;4.63;2.73;;;11.70;99.90;;;;;;4825766;29;20467;-81
2023/08/10 01:07:27;;;;;;;6.30;3.10;;;11.70;99.90;;;;;;4825638;29;20639;-82
2023/08/10 01:10:10;;;;;;;7.73;2.83;;;11.60;99.90;;;;;;4825764;29;20238;-81
2023/08/10 01:12:49;;;;;;;6.27;3.00;;;11.60;99.90;;;;;;4825906;29;20409;-81
2023/08/10 01:15:33;;;;;;;4.80;3.10;;;11.60;99.90;;;;;;4825622;29;20470;-84
2023/08/10 01:18:02;;;;;;;10.00;3.43;;;11.70;99.90;;;;;;4825379;29;20481;-81
2023/08/10 01:20:30;;;;;;;7.43;3.00;;;11.70;99.90;;;;;;4825343;29;20505;-81
2023/08/10 01:23:10;;;;;;;3.50;2.60;;;11.70;99.90;;;;;;4825711;29;20940;-81
2023/08/10 01:25:37;;;;;;;7.60;3.10;;;11.60;99.90;;;;;;4825489;29;20419;-81
2023/08/10 01:28:03;;;;;;;7.20;3.30;;;11.60;99.90;;;;;;4825290;29;20415;-81
2023/08/10 01:30:29;;;;;;;8.07;3.00;;;11.50;99.90;;;;;;4825057;29;20525;-81
2023/08/10 01:32:54;;;;;;;5.63;2.87;;;11.50;99.90;;;;;;4824968;29;20423;-81
2023/08/10 01:35:20;;;;;;;5.80;3.10;;;11.50;99.90;;;;;;4825717;29;20951;-81
2023/08/10 01:37:46;;;;;;;13.23;3.50;;;11.50;99.90;;;;;;4809127;29;20716;-81
2023/08/10 01:40:13;;;;;;;3.87;2.77;;;11.60;99.90;;;;;;4825370;29;20189;-81
2023/08/10 01:42:44;;;;;;;5.20;2.73;;;11.60;99.90;;;;;;4826587;29;20477;-81
2023/08/10 01:45:10;;;;;;;5.13;3.10;;;11.60;99.90;;;;;;4828831;29;20438;-81
2023/08/10 01:47:56;;;;;;;3.97;3.00;;;11.60;99.90;;;;;;4828402;29;20489;-81
2023/08/10 01:50:24;;;;;;;5.03;3.77;;;11.50;99.90;;;;;;4828280;29;20443;-82
2023/08/10 01:53:03;;;;;;;7.20;3.60;;;11.50;99.90;;;;;;4828567;29;20418;-81
2023/08/10 01:55:29;;;;;;;7.47;3.30;;;11.60;99.90;;;;;;4828197;29;20978;-82
2023/08/10 01:57:55;;;;;;;9.23;3.30;;;11.60;99.90;;;;;;4828586;29;20418;-81
2023/08/10 02:00:21;;;;;;;5.73;3.10;;;11.50;99.90;;;;;;4828417;29;20196;-82
2023/08/10 02:02:47;;;;;;;9.40;3.87;;;11.50;99.90;;;;;;4828662;29;20790;-82
2023/08/10 02:05:13;;;;;;;5.87;3.00;;;11.50;99.90;;;;;;4828512;29;20446;-81
2023/08/10 02:07:41;;;;;;;4.63;3.37;;;11.50;99.90;;;;;;4828177;29;20303;-81
2023/08/10 02:10:07;;;;;;;5.73;3.40;;;11.40;99.90;;;;;;4828413;29;20415;-81
2023/08/10 02:12:33;;;;;;;7.13;3.83;;;11.30;99.90;;;;;;4827802;29;20510;-81
2023/08/10 02:14:59;;;;;;;8.07;3.67;;;11.30;99.90;;;;;;4828211;29;20539;-81
2023/08/10 02:17:29;;;;;;;6.30;3.17;;;11.30;99.90;;;;;;4828134;29;20442;-80
2023/08/10 02:19:55;;;;;;;9.17;3.43;;;11.30;99.90;;;;;;4828481;29;20904;-81
2023/08/10 02:22:22;;;;;;;7.40;3.47;;;11.20;99.90;;;;;;4827778;29;20863;-81
2023/08/10 02:24:47;;;;;;;6.87;3.87;;;11.20;99.90;;;;;;4828206;29;20426;-81
2023/08/10 02:27:13;;;;;;;6.47;3.53;;;11.30;99.90;;;;;;4828004;29;20427;-81
2023/08/10 02:29:38;;;;;;;9.30;4.00;;;11.30;99.90;;;;;;4827595;29;20225;-81
2023/08/10 02:32:04;;;;;;;9.00;4.00;;;11.30;99.90;;;;;;4827910;29;20193;-81
2023/08/10 02:34:30;;;;;;;5.03;3.40;;;11.10;99.90;;;;;;4827991;29;20214;-81
2023/08/10 02:36:55;;;;;;;6.30;3.50;;;11.10;99.90;;;;;;4828171;29;20247;-81
2023/08/10 02:39:21;;;;;;;5.80;3.47;;;11.10;99.90;;;;;;4828095;29;20547;-83
2023/08/10 02:41:46;;;;;;;6.00;3.73;;;11.10;99.90;;;;;;4827906;29;20190;-81
2023/08/10 02:44:12;;;;;;;5.40;3.47;;;11.10;99.90;;;;;;4828017;29;20197;-81
2023/08/10 02:46:37;;;;;;;4.80;3.07;;;11.20;99.90;;;;;;4827834;29;20189;-81
2023/08/10 02:49:03;;;;;;;6.60;3.70;;;11.20;99.90;;;;;;4827994;29;20619;-81
2023/08/10 02:51:29;;;;;;;6.53;3.23;;;11.20;99.90;;;;;;4811581;29;20205;-82
2023/08/10 02:53:55;;;;;;;7.13;3.10;;;11.30;99.90;;;;;;4827326;29;20651;-81
2023/08/10 02:56:20;;;;;;;14.40;4.20;;;11.30;99.90;;;;;;4827703;29;20226;-81
2023/08/10 02:58:46;;;;;;;4.63;3.90;;;11.30;99.90;;;;;;4827974;29;20423;-81
2023/08/10 03:01:11;;;;;;;8.03;3.70;;;11.40;99.90;;;;;;4827657;29;20190;-81
2023/08/10 03:03:37;;;;;;;9.33;3.67;;;11.40;99.90;;;;;;4811295;29;20190;-81
2023/08/10 03:06:03;;;;;;;7.40;3.60;;;11.30;99.90;;;;;;4827715;29;20204;-81
2023/08/10 03:08:28;;;;;;;10.90;3.93;;;11.30;99.90;;;;;;4826986;29;20193;-82
2023/08/10 03:10:54;;;;;;;7.03;3.43;;;11.30;99.90;;;;;;4827753;29;20201;-81
2023/08/10 03:13:19;;;;;;;8.17;3.50;;;11.20;99.90;;;;;;4827876;29;20193;-81
2023/08/10 03:15:45;;;;;;;6.03;3.30;;;11.20;99.90;;;;;;4827120;29;20703;-82
2023/08/10 03:18:11;;;;;;;6.43;3.20;;;11.10;99.90;;;;;;4827549;29;20585;-81
2023/08/10 03:20:36;;;;;;;9.77;3.80;;;11.10;99.90;;;;;;4827271;29;20200;-82
2023/08/10 03:23:02;;;;;;;7.97;3.40;;;11.00;99.90;;;;;;4827601;29;20213;-82
2023/08/10 03:25:28;;;;;;;5.63;3.27;;;11.00;99.90;;;;;;4826783;29;20186;-81
2023/08/10 03:27:53;;;;;;;9.33;4.03;;;10.90;99.90;;;;;;4827443;29;20499;-81
2023/08/10 03:30:19;;;;;;;4.30;3.00;;;10.80;99.90;;;;;;4827376;29;20314;-81
2023/08/10 03:32:45;;;;;;;7.60;3.72;;;10.80;99.90;;;;;;4826979;29;20219;-81
2023/08/10 03:35:11;;;;;;;3.97;3.33;;;10.80;99.90;;;;;;4827151;29;20608;-81
2023/08/10 03:37:37;;;;;;;6.13;3.53;;;10.80;99.90;;;;;;4827186;29;20506;-81
2023/08/10 03:40:03;;;;;;;7.87;3.30;;;10.80;99.90;;;;;;4827463;29;20277;-81
2023/08/10 03:42:29;;;;;;;5.07;3.83;;;10.80;99.90;;;;;;4827378;29;20662;-82
2023/08/10 03:44:55;;;;;;;4.30;3.37;;;10.90;99.90;;;;;;4827575;29;20478;-81
2023/08/10 03:47:21;;;;;;;5.70;3.93;;;10.90;99.90;;;;;;4827038;29;20543;-81
2023/08/10 03:49:47;;;;;;;5.72;3.70;;;10.90;99.90;;;;;;4826939;29;20535;-81
2023/08/10 03:52:12;;;;;;;4.80;3.70;;;10.90;99.90;;;;;;4810879;29;20201;-82
2023/08/10 03:54:38;;;;;;;5.43;3.90;;;10.90;99.90;;;;;;4826941;29;20556;-82
2023/08/10 03:57:04;;;;;;;6.00;3.30;;;10.90;99.90;;;;;;4827018;29;20268;-81
2023/08/10 03:59:29;;;;;;;7.43;3.90;;;10.80;99.90;;;;;;4826679;29;20247;-82
2023/08/10 04:01:55;;;;;;;8.30;3.50;;;10.80;99.90;;;;;;4827073;29;20276;-81
2023/08/10 04:04:20;;;;;;;5.30;3.43;;;10.80;99.90;;;;;;4826566;29;20190;-81
2023/08/10 04:06:46;;;;;;;6.13;3.30;;;10.70;99.90;;;;;;4810187;29;20193;-81
2023/08/10 04:09:12;;;;;;;6.80;3.63;;;10.70;99.90;;;;;;4826897;29;20264;-81
2023/08/10 04:11:37;;;;;;;13.70;4.30;;;10.70;99.90;;;;;;4826794;29;20545;-81
2023/08/10 04:14:03;;;;;;;7.37;4.40;;;10.70;99.90;;;;;;4826588;29;20190;-81
2023/08/10 04:16:29;;;;;;;7.80;4.57;;;10.70;99.90;;;;;;4826294;29;20266;-81
2023/08/10 04:18:54;;;;;;;5.50;3.70;;;10.70;99.90;;;;;;4809952;29;20298;-81
2023/08/10 04:21:21;;;;;;;9.43;3.97;;;10.60;99.90;;;;;;4826988;29;20193;-81
2023/08/10 04:23:46;;;;;;;11.32;4.20;;;10.60;99.90;;;;;;4826314;29;20208;-81
2023/08/10 04:26:12;;;;;;;4.27;3.57;;;10.60;99.90;;;;;;4826860;29;20194;-81
2023/08/10 04:28:37;;;;;;;6.30;3.60;;;10.50;99.90;;;;;;4810279;29;20189;-81
2023/08/10 04:31:03;;;;;;;11.50;3.53;;;10.50;99.90;;;;;;4826879;29;20193;-81
2023/08/10 04:33:29;;;;;;;6.33;3.13;;;10.40;99.90;;;;;;4826476;29;20186;-81
2023/08/10 04:35:55;;;;;;;6.43;3.77;;;10.40;99.90;;;;;;4826329;29;20221;-81
2023/08/10 04:38:21;;;;;;;7.22;4.00;;;10.40;99.90;;;;;;4826240;29;20196;-81
2023/08/10 04:40:47;;;;;;;7.83;3.60;;;10.40;99.90;;;;;;4826491;29;20190;-81
2023/08/10 04:43:13;;;;;;;8.20;4.30;;;10.40;99.90;;;;;;4826620;29;20427;-81
2023/08/10 04:45:38;;;;;;;6.13;3.30;;;10.40;99.90;;;;;;4825986;29;20539;-81
2023/08/10 04:48:04;;;;;;;7.03;3.77;;;10.40;99.90;;;;;;4826199;29;20470;-81
2023/08/10 04:50:31;;;;;;;9.87;3.53;;;10.40;99.90;;;;;;4809789;29;20434;-81
2023/08/10 04:52:57;;;;;;;5.95;3.92;;;10.50;99.90;;;;;;4826640;29;20521;-81
2023/08/10 04:55:22;;;;;;;7.60;3.77;;;10.60;99.90;;;;;;4826443;29;20679;-81
2023/08/10 04:57:48;;;;;;;6.73;3.97;;;10.70;99.90;;;;;;4826257;29;20193;-81
2023/08/10 05:00:14;;;;;;;7.57;4.33;;;10.90;99.90;;;;;;4826159;29;20619;-81
2023/08/10 05:02:41;;;;;;;9.87;3.80;;;11.00;99.90;;;;;;4826103;29;20190;-81
2023/08/10 05:05:08;;;;;;;9.32;5.07;;;11.00;99.90;;;;;;4826209;29;20426;-80
2023/08/10 05:07:33;;;;;;;4.70;3.93;;;11.20;99.90;;;;;;4825723;29;20198;-81
2023/08/10 05:10:03;;;;;;;8.17;3.70;;;11.20;99.90;;;;;;4825969;29;20425;-81
2023/08/10 05:12:29;;;;;;;13.27;5.37;;;11.30;99.90;;;;;;4825537;29;20177;-84
2023/08/10 05:14:54;;;;;;;9.10;4.20;;;11.50;99.90;;;;;;4809732;29;20423;-80
2023/08/10 05:17:20;;;;;;;7.57;4.00;;;11.50;99.90;;;;;;4825826;29;20686;-80
2023/08/10 05:19:45;;;;;;;7.17;4.10;;;11.60;99.90;;;;;;4825734;29;20566;-81
2023/08/10 05:22:11;;;;;;;7.70;3.60;;;11.70;99.90;;;;;;4809327;29;20201;-81
2023/08/10 05:24:37;;;;;;;6.13;3.80;;;11.80;99.90;;;;;;4809254;29;20197;-81
2023/08/10 05:27:02;;;;;;;6.20;3.57;;;11.90;99.90;;;;;;4826043;29;20292;-81
2023/08/10 05:29:28;;;;;;;10.90;4.00;;;12.00;99.90;;;;;;4825463;29;20197;-81
2023/08/10 05:31:54;;;;;;;7.00;3.93;;;12.00;99.90;;;;;;4825521;29;20553;-81
2023/08/10 05:34:20;;;;;;;8.07;4.67;;;12.20;99.90;;;;;;4825605;29;20455;-81
2023/08/10 05:36:46;;;;;;;4.73;3.50;;;12.20;99.90;;;;;;4825182;29;20565;-81
2023/08/10 05:39:11;;;;;;;9.23;3.90;;;12.20;99.90;;;;;;4825374;29;20186;-81
2023/08/10 05:41:37;;;;;;;7.90;3.70;;;12.30;99.90;;;;;;4825504;29;20666;-81
2023/08/10 05:44:02;;;;;;;8.60;3.93;;;12.30;99.90;;;;;;4825576;29;20190;-81
2023/08/10 05:46:28;;;;;;;7.10;4.00;;;12.40;99.90;;;;;;4825630;29;20197;-80
2023/08/10 05:48:53;;;;;;;9.20;4.50;;;12.50;99.90;;;;;;4825342;29;20190;-81
2023/08/10 05:51:19;;;;;;;5.50;4.13;;;12.50;99.90;;;;;;4825291;29;20565;-81
2023/08/10 05:53:44;;;;;;;4.50;3.50;;;12.50;99.90;;;;;;4825105;29;20266;-81
2023/08/10 05:56:10;;;;;;;6.70;4.10;;;12.60;99.90;;;;;;4825257;29;20213;-81
2023/08/10 05:58:36;;;;;;;9.63;4.47;;;12.70;99.90;;;;;;4825276;29;20242;-81
2023/08/10 06:01:01;;;;;;;8.80;4.93;;;12.70;99.90;;;;;;4809157;29;20193;-81
2023/08/10 06:03:27;;;;;;;5.40;4.00;;;12.80;99.90;;;;;;4825021;29;20557;-81
2023/08/10 06:05:54;;;;;;;9.93;4.43;;;12.80;99.90;;;;;;4825099;29;20703;-81
2023/08/10 06:08:19;;;;;;;6.33;4.60;;;12.90;99.90;;;;;;4825400;29;20427;-81
2023/08/10 06:10:49;;;;;;;16.97;8.90;;;13.00;99.90;;;;;;4824816;29;20427;-80
2023/08/10 06:13:15;;;;;;;9.67;5.60;;;13.10;99.90;;;;;;4825112;29;20190;-81
2023/08/10 06:15:40;;;;;;;8.70;5.47;;;13.10;99.90;;;;;;4824690;29;20497;-81
2023/08/10 06:18:06;;;;;;;21.30;7.57;;;13.10;99.90;;;;;;4824905;29;20478;-81
2023/08/10 06:20:33;;;;;;;7.67;5.30;;;13.20;99.90;;;;;;4824676;29;20190;-81
2023/08/10 06:22:59;;;;;;;6.90;5.23;;;13.30;99.90;;;;;;4824864;29;20510;-81
2023/08/10 06:25:24;;;;;;;7.47;5.30;;;13.40;99.90;;;;;;4824770;29;20451;-81
2023/08/10 06:27:50;;;;;;;8.00;5.17;;;13.50;99.90;;;;;;4824619;29;20655;-81
2023/08/10 06:30:16;;;;;;;6.87;5.27;;;13.60;99.90;;;;;;4827931;29;20198;-81
2023/08/10 06:32:43;;;;;;;10.63;5.10;;;13.60;99.90;;;;;;4827674;29;20835;-82
2023/08/10 06:35:09;;;;;;;6.67;5.00;;;13.60;99.90;;;;;;4827527;29;20185;-81
2023/08/10 06:37:36;;;;;;;8.70;5.57;;;13.70;99.90;;;;;;4827568;29;20872;-82
2023/08/10 06:40:08;;;;;;;11.73;5.40;;;13.80;99.90;;;;;;4827567;29;20430;-81
2023/08/10 06:42:33;;;;;;;6.30;4.60;;;13.70;99.90;;;;;;4827246;29;20419;-84
2023/08/10 06:44:59;;;;;;;9.87;5.20;;;13.80;99.90;;;;;;4827598;29;20476;-85
2023/08/10 06:47:24;;;;;;;10.33;5.00;;;13.70;99.90;;;;;;4827439;29;20219;-85
2023/08/10 06:49:51;;;;;;;6.10;4.50;;;13.80;99.90;;;;;;4827436;29;20190;-85
2023/08/10 06:52:16;;;;;;;6.00;4.60;;;13.90;99.90;;;;;;4827729;29;20635;-85
2023/08/10 06:54:42;;;;;;;7.43;4.57;;;14.10;99.90;;;;;;4810824;29;20433;-88
2023/08/10 06:57:07;;;;;;;13.40;3.90;;;14.20;99.90;;;;;;4811133;29;20221;-87
2023/08/10 06:59:33;;;;;;;6.77;4.40;;;14.30;99.90;;;;;;4811374;29;20190;-87
2023/08/10 07:01:59;;;;;;;5.40;4.40;;;14.30;99.90;;;;;;4826672;29;20263;-88
2023/08/10 07:04:25;;;;;;;8.43;4.00;;;14.40;99.90;;;;;;4827153;29;20181;-85
2023/08/10 07:06:52;;;;;;;10.30;4.73;;;14.50;99.90;;;;;;4827023;29;20430;-85
2023/08/10 07:09:18;;;;;;;11.90;3.80;;;14.50;99.90;;;;;;4827507;29;20186;-85
2023/08/10 07:11:44;;;;;;;8.50;3.47;;;14.60;99.90;;;;;;4810734;29;20430;-86
2023/08/10 07:14:10;;;;;;;6.43;3.37;;;14.60;99.90;;;;;;4827446;29;20182;-85
2023/08/10 07:16:35;;;;;;;9.57;3.63;;;14.70;99.90;;;;;;4827020;29;20245;-85
2023/08/10 07:19:01;;;;;;;4.90;3.73;;;14.80;99.90;;;;;;4826515;29;20480;-85
2023/08/10 07:21:27;;;;;;;7.50;2.70;;;14.90;99.90;;;;;;4826827;29;20185;-85
2023/08/10 07:23:52;;;;;;;5.73;3.07;;;15.00;99.90;;;;;;4826863;29;20218;-85
2023/08/10 07:26:18;;;;;;;5.57;2.80;;;15.10;99.90;;;;;;4826974;29;20569;-85
2023/08/10 07:28:45;;;;;;;5.43;2.37;;;15.20;99.90;;;;;;4826799;29;20196;-85
2023/08/10 07:31:11;;;;;;;7.73;2.10;;;15.30;99.90;;;;;;4826800;29;20198;-85
2023/08/10 07:33:37;;;;;;;6.40;2.23;;;15.40;99.90;;;;;;4826589;29;20916;-85
2023/08/10 07:36:03;;;;;;;7.43;3.00;;;15.50;99.90;;;;;;4826936;29;20622;-85
2023/08/10 07:38:28;;;;;;;4.30;2.80;;;15.50;99.90;;;;;;4826666;29;20546;-85
2023/08/10 07:40:54;;;;;;;6.17;2.10;;;15.70;99.90;;;;;;4826246;29;20423;-85
2023/08/10 07:43:20;;;;;;;4.30;2.10;;;15.60;99.90;;;;;;4826619;29;20190;-85
2023/08/10 07:45:46;;;;;;;5.20;2.10;;;15.70;99.90;;;;;;4826400;29;20201;-85
2023/08/10 07:48:11;;;;;;;4.27;1.90;;;15.80;99.90;;;;;;4826966;29;20449;-85
2023/08/10 07:50:37;;;;;;;3.67;2.13;;;15.90;99.90;;;;;;4826744;29;20389;-85
2023/08/10 07:53:03;;;;;;;3.83;2.07;;;16.00;99.90;;;;;;4826579;29;20250;-85
2023/08/10 07:55:29;;;;;;;2.10;1.90;;;16.00;99.90;;;;;;4826304;29;20222;-85
2023/08/10 07:57:54;;;;;;;2.83;1.60;;;16.30;99.90;;;;;;4826397;29;20927;-85
2023/08/10 08:00:20;;;;;;;3.77;1.50;;;16.40;99.90;;;;;;4828616;29;20505;-85
2023/08/10 08:02:45;;;;;;;2.70;1.43;;;16.50;99.90;;;;;;4826366;29;20185;-85
2023/08/10 08:05:11;;;;;;;3.43;1.57;;;16.50;99.90;;;;;;4831978;29;20224;-85
2023/08/10 08:07:37;;;;;;;8.40;1.97;;;16.60;99.90;;;;;;4826414;29;20189;-84
2023/08/10 08:10:03;;;;;;;6.40;1.63;;;16.70;99.90;;;;;;4826031;29;20197;-85
2023/08/10 08:12:29;;;;;;;5.70;1.87;;;16.90;99.90;;;;;;4826149;29;20225;-85
2023/08/10 08:14:55;;;;;;;4.57;1.70;;;17.30;99.90;;;;;;4825802;29;20434;-85
2023/08/10 08:17:22;;;;;;;3.00;2.07;;;17.70;99.90;;;;;;4825738;29;20494;-85
2023/08/10 08:19:55;;;;;;;3.00;1.53;;;18.20;99.90;;;;;;4825730;29;20430;-85
2023/08/10 08:22:21;;;;;;;5.40;1.37;;;18.20;99.90;;;;;;4826175;29;20501;-85
2023/08/10 08:24:50;;;;;;;3.97;1.80;;;17.80;99.90;;;;;;4825823;29;20419;-86
2023/08/10 08:27:16;;;;;;;4.23;1.73;;;18.20;99.90;;;;;;4825877;29;20503;-85
2023/08/10 08:29:42;;;;;;;2.87;1.60;;;18.90;99.90;;;;;;4825550;29;20394;-85
2023/08/10 08:32:07;;;;;;;3.97;1.33;;;19.40;99.90;;;;;;4825884;29;20217;-85
2023/08/10 08:34:35;;;;;;;5.23;1.40;;;19.90;99.90;;;;;;4825435;29;20251;-85
2023/08/10 08:37:01;;;;;;;8.77;2.07;;;19.70;99.90;;;;;;4824969;29;20226;-85
2023/08/10 08:39:26;;;;;;;6.97;1.70;;;19.80;99.90;;;;;;4825341;29;20461;-85
2023/08/10 08:41:54;;;;;;;2.33;1.40;;;20.40;99.90;;;;;;4825161;29;20193;-85
2023/08/10 08:44:20;;;;;;;6.40;2.60;;;20.50;99.90;;;;;;4825589;29;20215;-85
2023/08/10 08:46:48;;;;;;;1.60;1.27;;;20.20;99.90;;;;;;4824989;29;20450;-86
2023/08/10 08:49:15;;;;;;;5.57;1.90;;;20.10;99.90;;;;;;4825838;29;20749;-85
2023/08/10 08:51:41;;;;;;;2.50;1.37;;;20.80;99.90;;;;;;4825466;29;20431;-85
2023/08/10 08:54:07;;;;;;;3.10;1.63;;;20.90;99.90;;;;;;4825107;29;20505;-85
2023/08/10 08:56:33;;;;;;;3.57;1.20;;;21.00;99.90;;;;;;4825317;29;20561;-85
2023/08/10 08:58:58;;;;;;;2.50;1.67;;;20.50;99.90;;;;;;4824994;29;20189;-85
2023/08/10 09:01:25;;;;;;;3.20;1.40;;;20.50;99.90;;;;;;4825313;29;20264;-85
2023/08/10 09:03:50;;;;;;;1.87;1.20;;;21.00;99.90;;;;;;4825068;29;20189;-86
2023/08/10 09:06:16;;;;;;;4.80;1.83;;;21.90;99.90;;;;;;4825246;29;20768;-86
2023/08/10 09:08:42;;;;;;;2.20;1.23;;;22.30;99.90;;;;;;4825102;29;20193;-86
2023/08/10 09:11:08;;;;;;;3.57;1.50;;;21.90;99.90;;;;;;4824570;29;20943;-86
2023/08/10 09:13:34;;;;;;;2.97;1.50;;;22.90;99.90;;;;;;4825013;29;20185;-85
2023/08/10 09:16:14;;;;;;;3.20;1.17;;;23.10;99.90;;;;;;4824780;29;20620;-85
2023/08/10 09:18:42;;;;;;;6.50;1.40;;;23.70;99.90;;;;;;4824709;29;20482;-85
2023/08/10 09:21:18;;;;;;;3.30;1.50;;;23.00;99.90;;;;;;4825394;29;20517;-85
2023/08/10 09:23:46;;;;;;;1.67;1.40;;;23.20;99.90;;;;;;4825038;29;20445;-85
2023/08/10 09:26:17;;;;;;;2.37;1.20;;;22.00;99.90;;;;;;4824895;29;20425;-85
2023/08/10 09:28:43;;;;;;;1.83;1.47;;;21.60;99.90;;;;;;4824769;29;20484;-85
2023/08/10 09:31:10;;;;;;;3.03;1.30;;;21.80;99.90;;;;;;4824818;29;20453;-85
2023/08/10 09:33:37;;;;;;;3.90;1.50;;;22.80;99.90;;;;;;4824741;29;20463;-85
2023/08/10 09:36:05;;;;;;;2.80;1.20;;;23.60;99.90;;;;;;4824484;29;20477;-86
2023/08/10 09:38:31;;;;;;;3.87;1.77;;;24.30;99.90;;;;;;4824692;29;20431;-86
2023/08/10 09:41:26;;;;;;;2.20;1.43;;;24.40;99.90;;;;;;4824445;29;20423;-86
2023/08/10 09:43:51;;;;;;;2.43;1.47;;;25.30;99.90;;;;;;4804423;29;20437;-86
2023/08/10 09:46:17;;;;;;;4.93;1.40;;;25.60;99.90;;;;;;4824347;29;20431;-86
2023/08/10 09:48:45;;;;;;;3.00;1.40;;;25.80;99.90;;;;;;4823989;29;20193;-86
2023/08/10 09:51:12;;;;;;;1.83;1.37;;;25.30;99.90;;;;;;4824317;29;20423;-85
2023/08/10 09:53:38;;;;;;;3.73;1.30;;;24.80;99.90;;;;;;4824252;29;20431;-86
2023/08/10 09:56:07;;;;;;;5.00;1.60;;;25.40;99.90;;;;;;4823818;29;20549;-86
2023/08/10 09:58:36;;;;;;;2.33;1.93;;;25.90;99.90;;;;;;4824242;29;20560;-86
2023/08/10 10:01:02;;;;;;;5.83;1.83;;;25.80;99.90;;;;;;4824171;29;20467;-86
2023/08/10 10:03:29;;;;;;;2.17;1.23;;;25.30;99.90;;;;;;4825340;29;20437;-86
2023/08/10 10:05:56;;;;;;;3.53;1.60;;;25.10;99.90;;;;;;4827101;29;20517;-86
2023/08/10 10:08:22;;;;;;;5.00;2.10;;;25.50;99.90;;;;;;4827530;29;20422;-86
2023/08/10 10:10:48;;;;;;;3.20;1.47;;;26.30;99.90;;;;;;4827333;29;20427;-86
2023/08/10 10:13:15;;;;;;;5.00;1.50;;;26.90;99.90;;;;;;4827497;29;20453;-86
2023/08/10 10:15:43;;;;;;;4.23;1.80;;;26.70;99.90;;;;;;4827120;29;20513;-85
2023/08/10 10:18:09;;;;;;;4.37;1.83;;;23.30;99.90;;;;;;4827189;29;20486;-85
2023/08/10 10:20:42;;;;;;;2.70;1.60;;;22.50;99.90;;;;;;4827451;29;20842;-85
2023/08/10 10:23:18;;;;;;;3.10;1.57;;;23.40;99.90;;;;;;4827324;29;20943;-85
2023/08/10 10:25:56;;;;;;;2.27;1.40;;;24.00;99.90;;;;;;4827489;29;20426;-85
2023/08/10 10:28:22;;;;;;;3.23;1.70;;;25.00;99.90;;;;;;4827813;29;20497;-85
2023/08/10 10:31:14;;;;;;;3.00;2.27;;;25.30;99.90;;;;;;4827023;29;20506;-86
2023/08/10 10:33:56;;;;;;;3.40;1.90;;;26.10;99.90;;;;;;4822670;29;20205;-85
2023/08/10 10:36:22;;;;;;;3.00;1.90;;;25.20;99.90;;;;;;4827062;29;20566;-85
2023/08/10 10:38:52;;;;;;;3.20;2.10;;;25.30;99.90;;;;;;4827020;29;20964;-85
2023/08/10 10:41:30;;;;;;;2.90;2.13;;;24.10;99.90;;;;;;4827041;29;20238;-85
2023/08/10 10:43:58;;;;;;;3.27;2.30;;;24.80;99.90;;;;;;4826965;29;20418;-85
2023/08/10 10:46:38;;;;;;;4.27;2.33;;;25.90;99.90;;;;;;4826844;29;20478;-85
2023/08/10 10:49:18;;;;;;;4.80;2.87;;;25.90;99.90;;;;;;4826110;29;20476;-85
2023/08/10 10:51:49;;;;;;;5.13;3.00;;;26.10;99.90;;;;;;4827072;29;20411;-85
2023/08/10 10:54:15;;;;;;;4.50;3.17;;;26.20;99.90;;;;;;4826872;29;20435;-85
2023/08/10 10:56:41;;;;;;;2.60;2.30;;;26.70;99.90;;;;;;4826760;29;20521;-85
2023/08/10 10:59:07;;;;;;;4.13;3.00;;;27.40;99.90;;;;;;4810336;29;20193;-85
2023/08/10 11:01:32;;;;;;;3.70;2.80;;;27.00;99.90;;;;;;4826632;29;20922;-85
2023/08/10 11:03:59;;;;;;;4.37;3.40;;;27.20;99.90;;;;;;4826332;29;20186;-85
2023/08/10 11:06:25;;;;;;;4.90;4.10;;;27.20;99.90;;;;;;4826687;29;20197;-85
2023/08/10 11:08:53;;;;;;;4.53;4.10;;;28.10;99.90;;;;;;4826334;29;20419;-86
2023/08/10 11:11:18;;;;;;;5.60;4.07;;;28.50;99.90;;;;;;4826398;29;20422;-86
2023/08/10 11:13:44;;;;;;;5.20;4.23;;;28.30;99.90;;;;;;4826056;29;20431;-87
2023/08/10 11:16:10;;;;;;;7.00;4.63;;;28.50;99.90;;;;;;4826087;29;20217;-87
2023/08/10 11:18:39;;;;;;;6.97;4.63;;;28.50;99.90;;;;;;4825749;29;20326;-86
2023/08/10 11:21:09;;;;;;;10.80;5.10;;;28.50;99.90;;;;;;4826117;29;20426;-86
2023/08/10 11:23:35;;;;;;;8.40;5.07;;;28.10;99.90;;;;;;4826223;29;20419;-91
2023/08/10 11:26:02;;;;;;;7.07;5.33;;;28.40;99.90;;;;;;4826026;29;20659;-86
2023/08/10 11:28:28;;;;;;;6.47;5.70;;;28.70;99.90;;;;;;4826150;29;20422;-85
2023/08/10 11:31:01;;;;;;;5.97;5.37;;;29.10;99.90;;;;;;4825815;29;20434;-86
2023/08/10 11:33:27;;;;;;;5.90;5.03;;;28.70;99.90;;;;;;4826190;29;20181;-86
2023/08/10 11:35:53;;;;;;;9.60;6.10;;;29.30;99.90;;;;;;4825664;29;20471;-87
2023/08/10 11:38:19;;;;;;;8.67;6.90;;;29.40;99.90;;;;;;4809707;29;20613;-92
2023/08/10 11:40:45;;;;;;;8.10;6.80;;;29.60;99.90;;;;;;4828377;29;20426;-86
2023/08/10 11:43:14;;;;;;;6.30;5.47;;;30.10;99.90;;;;;;4830324;29;20782;-88
2023/08/10 11:45:41;;;;;;;5.90;5.00;;;30.20;99.90;;;;;;4827506;29;20427;-87
2023/08/10 11:48:13;;;;;;;7.33;6.53;;;29.90;99.90;;;;;;4825745;29;20533;-87
2023/08/10 11:50:39;;;;;;;7.17;5.97;;;30.20;99.90;;;;;;4809582;29;20919;-88
2023/08/10 11:53:12;;;;;;;7.27;5.83;;;30.50;99.90;;;;;;4825588;29;20422;-88
2023/08/10 11:55:45;;;;;;;7.33;6.53;;;30.30;99.90;;;;;;4825561;29;20470;-87
2023/08/10 11:58:13;;;;;;;11.33;8.07;;;29.80;99.90;;;;;;4825454;29;20451;-87
2023/08/10 12:00:41;;;;;;;12.53;10.70;;;30.30;99.90;;;;;;4825484;29;20454;-87
2023/08/10 12:03:15;;;;;;;11.63;8.23;;;31.10;99.90;;;;;;4825292;29;20446;-87
2023/08/10 12:05:44;;;;;;;9.40;7.20;;;30.90;99.90;;;;;;4825768;29;20415;-87
2023/08/10 12:08:17;;;;;;;9.20;8.10;;;30.10;98.70;;;;;;4825342;29;20745;-86
2023/08/10 12:10:47;;;;;;;10.63;7.20;;;29.90;98.20;;;;;;4825552;29;20423;-86
2023/08/10 12:13:16;;;;;;;8.63;6.70;;;30.20;99.60;;;;;;4825250;29;20442;-86
2023/08/10 12:15:49;;;;;;;8.30;5.90;;;30.40;99.20;;;;;;4825331;29;20558;-85
2023/08/10 12:18:16;;;;;;;8.10;6.37;;;29.70;99.90;;;;;;4824868;29;20485;-86
2023/08/10 12:20:48;;;;;;;7.97;6.00;;;30.10;99.90;;;;;;4825469;29;20419;-86
2023/08/10 12:23:14;;;;;;;9.63;5.97;;;29.40;99.10;;;;;;4825015;29;20438;-86
2023/08/10 12:25:41;;;;;;;8.83;6.70;;;29.90;99.50;;;;;;4824294;29;20935;-86
2023/08/10 12:28:07;;;;;;;7.17;6.43;;;29.70;99.90;;;;;;4825021;29;20430;-86
2023/08/10 12:30:34;;;;;;;9.53;7.00;;;30.40;96.90;;;;;;4824854;29;20931;-86
2023/08/10 12:33:00;;;;;;;9.33;7.40;;;30.60;97.50;;;;;;4825026;29;20423;-86
2023/08/10 12:35:26;;;;;;;7.77;6.70;;;30.40;96.40;;;;;;4825006;29;20485;-86
2023/08/10 12:37:52;;;;;;;9.33;7.90;;;29.90;98.20;;;;;;4808648;29;20927;-85
2023/08/10 12:40:18;;;;;;;10.20;7.83;;;29.80;97.20;;;;;;4824847;29;20430;-85
2023/08/10 12:42:44;;;;;;;11.13;8.07;;;29.20;97.30;;;;;;4825246;29;20269;-86
2023/08/10 12:45:11;;;;;;;9.90;8.40;;;29.50;99.70;;;;;;4824681;29;20305;-87